Time;durP1;ratioP1;P1;durP2;ratioP2;P2;SDS_P1;SDS_P2;PMS_P1;PMS_P2;Temp;Humidity;BMP_temperature;BMP_pressure;BME280_temperature;BME280_humidity;BME280_pressure;Samples;Min_cycle;Max_cycle;Signal;HPM_P1;HPM_P2
2021/04/06 00:01:46;;;;;;;3.90;1.97;;;2.30;99.90;;;;;;5053254;28;20449;-64
2021/04/06 00:04:16;;;;;;;4.73;2.17;;;2.30;99.90;;;;;;5053787;28;20876;-63
2021/04/06 00:06:45;;;;;;;2.40;1.40;;;2.10;99.90;;;;;;5054569;28;20912;-63
2021/04/06 00:09:15;;;;;;;3.67;1.87;;;2.10;99.90;;;;;;5053954;28;20472;-63
2021/04/06 00:11:46;;;;;;;2.17;1.70;;;2.20;99.90;;;;;;5053907;28;20429;-63
2021/04/06 00:14:14;;;;;;;4.00;1.93;;;2.10;99.90;;;;;;5054723;28;20383;-62
2021/04/06 00:16:41;;;;;;;2.70;1.50;;;2.00;99.90;;;;;;5053665;28;20496;-62
2021/04/06 00:19:09;;;;;;;2.53;1.40;;;1.90;99.90;;;;;;5053208;28;20426;-63
2021/04/06 00:21:37;;;;;;;2.43;1.50;;;1.80;99.90;;;;;;5053366;28;20484;-63
2021/04/06 00:24:04;;;;;;;3.00;1.77;;;1.90;99.90;;;;;;5052780;28;20486;-64
2021/04/06 00:26:44;;;;;;;2.90;1.80;;;2.00;99.90;;;;;;5053787;28;20419;-63
2021/04/06 00:29:11;;;;;;;2.40;2.17;;;1.90;99.90;;;;;;5053745;28;20937;-63
2021/04/06 00:31:40;;;;;;;1.93;1.67;;;1.90;99.90;;;;;;5052993;28;20469;-63
2021/04/06 00:34:06;;;;;;;4.23;2.00;;;2.00;99.90;;;;;;5053582;28;20433;-63
2021/04/06 00:36:32;;;;;;;5.73;2.70;;;2.00;99.90;;;;;;5053173;28;20412;-63
2021/04/06 00:38:58;;;;;;;4.60;2.10;;;2.00;99.90;;;;;;5052944;28;20499;-63
2021/04/06 00:41:24;;;;;;;6.13;2.00;;;1.90;99.90;;;;;;5052965;28;20425;-63
2021/04/06 00:43:51;;;;;;;2.60;1.80;;;1.90;99.90;;;;;;5053064;28;20490;-63
2021/04/06 00:46:20;;;;;;;5.10;2.30;;;1.80;99.90;;;;;;5053001;28;20406;-63
2021/04/06 00:48:48;;;;;;;2.20;2.00;;;1.90;99.90;;;;;;5053336;28;20770;-63
2021/04/06 00:51:19;;;;;;;6.23;1.93;;;1.90;99.90;;;;;;5053071;28;20431;-63
2021/04/06 00:53:48;;;;;;;1.90;1.80;;;1.60;99.90;;;;;;5053574;28;20402;-63
2021/04/06 00:56:16;;;;;;;2.53;1.87;;;1.60;99.90;;;;;;5053459;28;20402;-63
2021/04/06 00:58:52;;;;;;;5.47;1.97;;;1.50;99.90;;;;;;5052711;28;20441;-63
2021/04/06 01:01:45;;;;;;;4.57;2.10;;;1.60;99.90;;;;;;5034846;28;20536;-63
2021/04/06 01:04:19;;;;;;;3.03;2.20;;;1.70;99.90;;;;;;5025858;28;20970;-63
2021/04/06 01:06:57;;;;;;;3.57;1.77;;;1.70;99.90;;;;;;5057141;28;20394;-63
2021/04/06 01:09:35;;;;;;;3.03;1.90;;;1.80;99.90;;;;;;5056942;28;20407;-64
2021/04/06 01:12:03;;;;;;;2.43;1.77;;;1.90;99.90;;;;;;5056882;28;20422;-63
2021/04/06 01:14:30;;;;;;;5.00;2.40;;;1.90;99.90;;;;;;5059326;28;20891;-63
2021/04/06 01:16:56;;;;;;;3.20;2.20;;;2.00;99.90;;;;;;5056389;28;20437;-64
2021/04/06 01:19:23;;;;;;;4.60;2.10;;;2.00;99.90;;;;;;5056579;28;20399;-64
2021/04/06 01:21:49;;;;;;;2.43;1.80;;;1.80;99.90;;;;;;5057271;28;20476;-63
2021/04/06 01:24:15;;;;;;;2.73;2.40;;;1.90;99.90;;;;;;5053518;28;22117;-64
2021/04/06 01:26:41;;;;;;;3.30;2.30;;;1.80;99.90;;;;;;5045696;28;20418;-63
2021/04/06 01:29:06;;;;;;;10.33;2.33;;;1.70;99.90;;;;;;5052886;28;20259;-63
2021/04/06 01:31:34;;;;;;;6.13;2.40;;;1.70;99.90;;;;;;5056347;28;20226;-64
2021/04/06 01:34:02;;;;;;;4.83;2.37;;;1.70;99.90;;;;;;5055351;28;20325;-64
2021/04/06 01:36:28;;;;;;;2.60;1.90;;;1.70;99.90;;;;;;5056636;28;20421;-65
2021/04/06 01:38:54;;;;;;;5.07;2.80;;;1.70;99.90;;;;;;5056347;28;20489;-63
2021/04/06 01:41:20;;;;;;;3.90;1.50;;;1.80;99.90;;;;;;5056592;28;20208;-64
2021/04/06 01:43:47;;;;;;;4.80;2.30;;;1.70;99.90;;;;;;5056729;28;20245;-63
2021/04/06 01:46:16;;;;;;;2.50;1.90;;;1.80;99.90;;;;;;5056389;28;20409;-63
2021/04/06 01:48:42;;;;;;;5.97;2.77;;;1.80;99.90;;;;;;5057075;28;20511;-63
2021/04/06 01:51:08;;;;;;;3.63;2.47;;;1.70;99.90;;;;;;5056359;28;20434;-63
2021/04/06 01:53:35;;;;;;;3.10;2.10;;;1.70;99.90;;;;;;5055800;28;20443;-63
2021/04/06 01:56:05;;;;;;;5.23;2.50;;;1.70;99.90;;;;;;5056572;28;20403;-63
2021/04/06 01:58:32;;;;;;;4.63;2.90;;;1.70;99.90;;;;;;5057592;28;20444;-63
2021/04/06 02:03:39;;;;;;;3.53;1.80;;;1.50;99.90;;;;;;5057190;28;20390;-63
2021/04/06 02:06:06;;;;;;;4.40;2.30;;;1.30;99.90;;;;;;5065526;28;20386;-64
2021/04/06 02:08:32;;;;;;;2.67;2.00;;;1.40;99.90;;;;;;5063209;28;20409;-65
2021/04/06 02:10:58;;;;;;;4.83;2.43;;;1.40;99.90;;;;;;5060982;28;20906;-63
2021/04/06 02:13:24;;;;;;;5.03;2.17;;;1.30;99.90;;;;;;5066946;28;20626;-63
2021/04/06 02:16:00;;;;;;;2.70;2.07;;;1.30;99.90;;;;;;5064095;28;20405;-63
2021/04/06 02:18:35;;;;;;;4.67;2.40;;;1.40;99.90;;;;;;5055937;28;20232;-63
2021/04/06 02:21:04;;;;;;;5.30;2.70;;;1.40;99.90;;;;;;5055745;28;20428;-63
2021/04/06 02:23:40;;;;;;;4.30;2.23;;;1.40;99.90;;;;;;5055501;28;20480;-63
2021/04/06 02:26:06;;;;;;;3.67;2.10;;;1.40;99.90;;;;;;5055857;28;20539;-63
2021/04/06 02:28:32;;;;;;;6.03;2.77;;;1.30;99.90;;;;;;5056051;28;20506;-63
2021/04/06 02:30:59;;;;;;;3.53;2.33;;;1.40;99.90;;;;;;5055639;28;20299;-63
2021/04/06 02:33:28;;;;;;;5.47;2.47;;;1.30;99.90;;;;;;5055549;28;20405;-62
2021/04/06 02:35:55;;;;;;;3.73;1.90;;;1.20;99.90;;;;;;5055572;28;20409;-64
2021/04/06 02:38:21;;;;;;;3.97;2.00;;;1.20;99.90;;;;;;5055467;28;20438;-63
2021/04/06 02:40:47;;;;;;;2.60;2.30;;;1.00;99.90;;;;;;5055082;28;20434;-64
2021/04/06 02:43:13;;;;;;;2.73;2.10;;;1.10;99.90;;;;;;5037223;28;20941;-64
2021/04/06 02:45:39;;;;;;;2.60;2.23;;;1.10;99.90;;;;;;5055167;28;20400;-64
2021/04/06 02:48:11;;;;;;;5.17;2.43;;;1.10;99.90;;;;;;5054968;28;20233;-64
2021/04/06 02:50:39;;;;;;;3.73;2.20;;;1.20;99.90;;;;;;5055444;28;20422;-64
2021/04/06 02:53:07;;;;;;;4.30;2.50;;;1.10;99.90;;;;;;5055046;28;20456;-64
2021/04/06 02:55:34;;;;;;;4.47;2.60;;;1.20;99.90;;;;;;5054784;28;20524;-64
2021/04/06 02:57:59;;;;;;;3.70;2.13;;;1.20;99.90;;;;;;5054866;28;20443;-64
2021/04/06 03:00:25;;;;;;;3.40;2.20;;;1.20;99.90;;;;;;5054937;28;20513;-63
2021/04/06 03:02:50;;;;;;;5.17;2.40;;;1.30;99.90;;;;;;5054875;28;20170;-63
2021/04/06 03:05:33;;;;;;;4.17;2.33;;;1.20;99.90;;;;;;5055278;28;20167;-63
2021/04/06 03:08:00;;;;;;;5.07;2.40;;;1.30;99.90;;;;;;5054524;28;20155;-63
2021/04/06 03:10:30;;;;;;;8.87;2.30;;;1.30;99.90;;;;;;5056717;28;20432;-63
2021/04/06 03:12:57;;;;;;;3.57;2.00;;;1.30;99.90;;;;;;5055044;28;20407;-63
2021/04/06 03:15:24;;;;;;;3.13;2.83;;;1.30;99.90;;;;;;5054898;28;20406;-63
2021/04/06 03:17:52;;;;;;;6.60;2.57;;;1.40;99.90;;;;;;5054582;28;20450;-62
2021/04/06 03:20:20;;;;;;;3.83;2.73;;;1.30;99.90;;;;;;5054391;28;20420;-63
2021/04/06 03:22:48;;;;;;;5.97;3.10;;;1.30;99.90;;;;;;5054561;28;20513;-63
2021/04/06 03:25:14;;;;;;;3.93;2.63;;;1.30;99.90;;;;;;5054021;28;20490;-63
2021/04/06 03:27:50;;;;;;;4.87;2.50;;;1.30;99.90;;;;;;5054154;28;20410;-64
2021/04/06 03:30:31;;;;;;;4.00;2.67;;;1.20;99.90;;;;;;5079019;23;20448;-64
2021/04/06 03:33:06;;;;;;;4.03;2.50;;;1.20;99.90;;;;;;5012959;28;20436;-61
2021/04/06 03:35:33;;;;;;;3.37;2.87;;;1.50;99.90;;;;;;5034130;28;20385;-60
2021/04/06 03:37:59;;;;;;;3.77;2.50;;;1.40;99.90;;;;;;5033428;28;21005;-60
2021/04/06 03:40:29;;;;;;;4.00;2.80;;;1.40;99.90;;;;;;5033383;28;20426;-60
2021/04/06 03:43:10;;;;;;;3.13;2.40;;;1.40;99.90;;;;;;5033644;28;20434;-60
2021/04/06 03:45:35;;;;;;;4.13;2.77;;;1.40;99.90;;;;;;5033351;28;20580;-60
2021/04/06 03:48:01;;;;;;;4.73;2.70;;;1.40;99.90;;;;;;5033112;28;20433;-60
2021/04/06 03:50:40;;;;;;;6.07;2.27;;;1.50;99.90;;;;;;5033413;28;20207;-60
2021/04/06 03:53:11;;;;;;;4.73;3.27;;;1.30;99.90;;;;;;5033279;28;20157;-61
2021/04/06 03:55:39;;;;;;;3.10;2.90;;;1.20;99.90;;;;;;5033482;28;20396;-60
2021/04/06 03:58:18;;;;;;;4.97;2.23;;;1.40;99.90;;;;;;5032969;28;20492;-60
2021/04/06 04:00:43;;;;;;;3.37;2.90;;;1.50;99.90;;;;;;5036214;28;20442;-61
2021/04/06 04:03:09;;;;;;;4.60;2.73;;;1.60;99.90;;;;;;5052909;28;20844;-60
2021/04/06 04:05:34;;;;;;;4.53;3.33;;;1.40;99.90;;;;;;5052931;28;20554;-60
2021/04/06 04:08:01;;;;;;;5.90;3.20;;;1.30;99.90;;;;;;5052859;28;20163;-60
2021/04/06 04:10:27;;;;;;;7.57;3.63;;;1.40;99.90;;;;;;5053313;28;20168;-61
2021/04/06 04:12:53;;;;;;;5.97;3.77;;;1.40;99.90;;;;;;5052908;28;20408;-60
2021/04/06 04:15:19;;;;;;;6.87;3.50;;;1.50;99.90;;;;;;5053029;28;20496;-61
2021/04/06 04:17:48;;;;;;;6.63;2.93;;;1.30;99.90;;;;;;5052577;28;20473;-61
2021/04/06 04:20:15;;;;;;;4.57;3.27;;;1.30;99.90;;;;;;5051778;28;20429;-62
2021/04/06 04:22:41;;;;;;;3.90;3.00;;;1.40;99.90;;;;;;5053815;28;20407;-60
2021/04/06 04:25:11;;;;;;;3.90;3.00;;;1.50;99.90;;;;;;5053083;28;20404;-61
2021/04/06 04:27:38;;;;;;;4.43;3.30;;;1.60;99.90;;;;;;5053132;28;20168;-60
2021/04/06 04:30:04;;;;;;;4.17;3.37;;;1.40;99.90;;;;;;5053438;28;20978;-62
2021/04/06 04:32:30;;;;;;;4.53;3.27;;;1.40;99.90;;;;;;5052105;28;20450;-62
2021/04/06 04:34:56;;;;;;;3.90;3.33;;;1.30;99.90;;;;;;5052401;28;20414;-61
2021/04/06 04:37:22;;;;;;;5.83;3.50;;;1.30;99.90;;;;;;5052058;28;20193;-62
2021/04/06 04:39:48;;;;;;;6.37;2.97;;;1.50;99.90;;;;;;5052975;28;20406;-62
2021/04/06 04:42:13;;;;;;;6.93;3.27;;;1.70;99.90;;;;;;5052732;28;20494;-62
2021/04/06 04:44:39;;;;;;;4.57;3.33;;;1.70;99.90;;;;;;5052534;28;20164;-61
2021/04/06 04:47:05;;;;;;;4.83;3.63;;;1.60;99.90;;;;;;5052329;28;20171;-62
2021/04/06 04:49:30;;;;;;;6.70;3.20;;;1.70;99.90;;;;;;5052597;28;20195;-62
2021/04/06 04:51:56;;;;;;;3.93;3.10;;;1.60;99.90;;;;;;5052507;28;20187;-62
2021/04/06 04:54:21;;;;;;;3.60;2.97;;;1.80;99.90;;;;;;5052519;28;20195;-62
2021/04/06 04:56:47;;;;;;;5.13;4.00;;;1.80;99.90;;;;;;5052865;28;20534;-61
2021/04/06 04:59:13;;;;;;;5.03;2.60;;;1.80;99.90;;;;;;5052225;28;20238;-62
2021/04/06 05:01:38;;;;;;;5.43;4.00;;;1.80;99.90;;;;;;5052219;28;20216;-61
2021/04/06 05:04:04;;;;;;;4.53;3.17;;;1.90;99.90;;;;;;5052143;28;20167;-62
2021/04/06 05:06:30;;;;;;;6.27;3.50;;;1.80;99.90;;;;;;5034389;28;20562;-61
2021/04/06 05:08:55;;;;;;;3.30;3.00;;;1.70;99.90;;;;;;5036849;28;20413;-61
2021/04/06 05:11:21;;;;;;;5.27;3.63;;;1.60;99.90;;;;;;5052550;28;20291;-62
2021/04/06 05:13:47;;;;;;;4.47;3.40;;;1.80;99.90;;;;;;5052131;28;20543;-61
2021/04/06 05:16:13;;;;;;;7.10;3.87;;;1.80;99.90;;;;;;5052299;28;20164;-62
2021/04/06 05:18:39;;;;;;;4.97;3.20;;;1.90;99.90;;;;;;5052300;28;20445;-63
2021/04/06 05:21:05;;;;;;;6.73;3.80;;;1.80;99.90;;;;;;5034170;28;20189;-62
2021/04/06 05:23:31;;;;;;;7.60;3.40;;;1.90;99.90;;;;;;5052120;28;20506;-62
2021/04/06 05:25:56;;;;;;;6.20;3.27;;;2.00;99.90;;;;;;5052015;28;20490;-62
2021/04/06 05:28:22;;;;;;;6.63;3.20;;;1.90;99.90;;;;;;5052536;28;20700;-62
2021/04/06 05:30:48;;;;;;;5.33;3.40;;;1.80;99.90;;;;;;5051481;28;20227;-63
2021/04/06 05:33:13;;;;;;;6.10;5.50;;;1.70;99.90;;;;;;5052141;28;20746;-62
2021/04/06 05:35:39;;;;;;;6.17;3.50;;;1.60;99.90;;;;;;5051569;28;20640;-62
2021/04/06 05:38:04;;;;;;;7.07;3.33;;;1.50;99.90;;;;;;5051753;28;20258;-62
2021/04/06 05:40:30;;;;;;;3.80;3.23;;;1.70;99.90;;;;;;5051735;28;20264;-62
2021/04/06 05:42:58;;;;;;;4.87;3.70;;;1.70;99.90;;;;;;5051898;28;20255;-62
2021/04/06 05:45:24;;;;;;;5.43;3.90;;;1.80;99.90;;;;;;5051887;28;20179;-62
2021/04/06 05:47:55;;;;;;;4.90;3.60;;;1.90;99.90;;;;;;5051704;28;20415;-62
2021/04/06 05:50:21;;;;;;;6.33;3.60;;;1.90;99.90;;;;;;5054150;28;20778;-63
2021/04/06 05:52:47;;;;;;;9.20;4.47;;;1.80;99.90;;;;;;5054920;28;20517;-62
2021/04/06 05:55:13;;;;;;;9.03;4.03;;;1.80;99.90;;;;;;5054963;28;20168;-62
2021/04/06 05:57:39;;;;;;;7.27;3.60;;;2.00;99.90;;;;;;5056093;28;20454;-62
2021/04/06 06:00:06;;;;;;;6.07;4.33;;;2.10;99.90;;;;;;5055630;28;20167;-62
2021/04/06 06:02:31;;;;;;;5.60;3.60;;;2.10;99.90;;;;;;5054898;28;20189;-62
2021/04/06 06:04:57;;;;;;;6.30;3.37;;;2.10;99.90;;;;;;5055269;28;20403;-62
2021/04/06 06:07:24;;;;;;;7.90;3.30;;;2.20;99.90;;;;;;5055701;28;20656;-62
2021/04/06 06:09:50;;;;;;;5.30;4.40;;;2.20;99.90;;;;;;5054956;28;20417;-62
2021/04/06 06:12:20;;;;;;;5.70;3.57;;;2.30;99.90;;;;;;5055136;28;20422;-62
2021/04/06 06:14:53;;;;;;;10.47;3.40;;;2.50;99.90;;;;;;5055264;28;20501;-62
2021/04/06 06:17:26;;;;;;;6.20;3.93;;;2.50;99.90;;;;;;5054758;28;20437;-62
2021/04/06 06:19:56;;;;;;;8.73;3.63;;;2.40;99.90;;;;;;5054687;28;20387;-62
2021/04/06 06:22:30;;;;;;;5.50;3.80;;;2.50;99.90;;;;;;5054683;28;20505;-62
2021/04/06 06:25:02;;;;;;;8.77;3.63;;;2.50;99.90;;;;;;5054934;28;20529;-62
2021/04/06 06:27:35;;;;;;;8.50;3.90;;;2.60;99.90;;;;;;5054864;28;20484;-62
2021/04/06 06:33:14;;;;;;;3.47;2.77;;;2.70;99.90;;;;;;5055088;28;20399;-63
2021/04/06 06:35:41;;;;;;;4.10;3.43;;;3.00;99.90;;;;;;5054597;28;20400;-62
2021/04/06 06:38:26;;;;;;;4.10;3.00;;;2.90;99.90;;;;;;5054530;28;20525;-62
2021/04/06 06:40:53;;;;;;;4.63;3.00;;;3.00;99.90;;;;;;5055013;28;20415;-62
2021/04/06 06:43:21;;;;;;;8.13;3.40;;;2.80;99.90;;;;;;5054894;28;20459;-62
2021/04/06 06:45:49;;;;;;;8.70;3.60;;;2.80;99.90;;;;;;5054613;28;20820;-62
2021/04/06 06:48:34;;;;;;;5.10;3.20;;;2.60;99.90;;;;;;5054642;28;20487;-62
2021/04/06 06:51:02;;;;;;;7.10;3.13;;;2.80;99.90;;;;;;5054548;28;21019;-63
2021/04/06 06:53:39;;;;;;;7.77;4.37;;;3.00;99.90;;;;;;5054684;28;20436;-62
2021/04/06 06:56:06;;;;;;;7.13;3.03;;;3.20;99.90;;;;;;5054642;28;20898;-62
2021/04/06 06:58:40;;;;;;;6.33;2.93;;;3.30;99.90;;;;;;5054740;28;20451;-62
2021/04/06 07:01:06;;;;;;;4.47;3.30;;;3.30;99.90;;;;;;5055666;28;20956;-63
2021/04/06 07:03:32;;;;;;;4.10;3.60;;;3.50;99.90;;;;;;5054577;28;20395;-62
2021/04/06 07:06:20;;;;;;;8.00;4.20;;;3.30;99.90;;;;;;5053907;28;20408;-62
2021/04/06 07:08:47;;;;;;;8.80;3.10;;;3.50;99.90;;;;;;5054692;28;20200;-62
2021/04/06 07:11:15;;;;;;;6.50;3.30;;;3.70;99.90;;;;;;5053300;28;20464;-64
2021/04/06 07:13:44;;;;;;;9.43;4.10;;;3.70;99.90;;;;;;5054465;28;20420;-62
2021/04/06 07:16:14;;;;;;;5.33;3.50;;;3.60;99.90;;;;;;5053996;28;20402;-64
2021/04/06 07:18:43;;;;;;;8.57;2.93;;;3.50;99.90;;;;;;5053766;28;20466;-64
2021/04/06 07:21:11;;;;;;;6.27;3.20;;;3.60;99.90;;;;;;5053956;28;20462;-62
2021/04/06 07:23:45;;;;;;;6.37;3.40;;;3.80;99.90;;;;;;5054140;28;20457;-63
2021/04/06 07:26:16;;;;;;;6.53;3.13;;;3.50;99.90;;;;;;5053783;28;20393;-62
2021/04/06 07:28:42;;;;;;;10.03;3.60;;;3.50;99.90;;;;;;5054220;28;20947;-62
2021/04/06 07:31:10;;;;;;;8.00;4.10;;;3.70;99.90;;;;;;5053197;28;20459;-63
2021/04/06 07:33:37;;;;;;;7.30;2.80;;;3.80;99.90;;;;;;5054172;28;20405;-63
2021/04/06 07:36:07;;;;;;;6.57;3.53;;;3.90;99.90;;;;;;5035821;28;20417;-62
2021/04/06 07:38:35;;;;;;;7.77;3.40;;;4.20;99.90;;;;;;5053639;28;21030;-62
2021/04/06 07:41:03;;;;;;;5.93;2.77;;;4.20;99.90;;;;;;5053127;28;20428;-63
2021/04/06 07:43:29;;;;;;;7.53;3.63;;;4.40;99.90;;;;;;5053462;28;20405;-62
2021/04/06 07:45:56;;;;;;;5.90;3.80;;;4.70;99.90;;;;;;5053574;28;20484;-62
2021/04/06 07:48:48;;;;;;;6.63;3.23;;;4.30;99.90;;;;;;5053617;28;20484;-62
2021/04/06 07:51:23;;;;;;;5.40;3.73;;;4.20;99.90;;;;;;5053707;28;20417;-62
2021/04/06 07:54:09;;;;;;;10.53;3.73;;;4.40;99.90;;;;;;5053853;28;20408;-62
2021/04/06 07:56:44;;;;;;;4.80;3.20;;;4.70;99.90;;;;;;5053686;28;20438;-62
2021/04/06 07:59:30;;;;;;;5.47;3.10;;;4.80;99.90;;;;;;5053254;28;20440;-62
2021/04/06 08:01:58;;;;;;;11.60;4.70;;;4.70;99.90;;;;;;5052715;28;20440;-63
2021/04/06 08:04:47;;;;;;;9.43;4.60;;;4.90;99.90;;;;;;5053134;28;20909;-62
2021/04/06 08:07:19;;;;;;;4.50;3.90;;;4.70;99.90;;;;;;5053164;28;20814;-62
2021/04/06 08:09:46;;;;;;;5.77;2.87;;;4.80;99.90;;;;;;5053243;28;20435;-62
2021/04/06 08:12:15;;;;;;;5.40;3.10;;;4.60;99.90;;;;;;5053151;28;20427;-62
2021/04/06 08:14:45;;;;;;;8.03;3.33;;;4.70;99.90;;;;;;5053306;28;20459;-62
2021/04/06 08:17:26;;;;;;;7.00;3.27;;;4.90;99.90;;;;;;5052932;28;20428;-62
2021/04/06 08:20:29;;;;;;;5.60;3.13;;;5.00;99.90;;;;;;5048616;28;20421;-63
2021/04/06 08:22:58;;;;;;;5.10;3.10;;;4.80;99.90;;;;;;5046316;28;20419;-62
2021/04/06 08:25:29;;;;;;;4.83;3.30;;;5.10;99.90;;;;;;5052768;28;20405;-63
2021/04/06 08:28:02;;;;;;;5.13;3.20;;;4.70;99.90;;;;;;5051995;28;20976;-63
2021/04/06 08:30:36;;;;;;;5.30;2.70;;;4.80;99.90;;;;;;5052681;28;20413;-63
2021/04/06 08:33:07;;;;;;;8.50;4.10;;;5.30;99.90;;;;;;5052739;28;20847;-63
2021/04/06 08:35:49;;;;;;;5.30;3.17;;;5.50;99.90;;;;;;5052941;28;20413;-62
2021/04/06 08:38:28;;;;;;;2.97;2.50;;;5.50;99.90;;;;;;5034896;28;20808;-62
2021/04/06 08:40:56;;;;;;;6.50;4.10;;;5.20;99.90;;;;;;5052688;28;20439;-62
2021/04/06 08:43:24;;;;;;;4.27;3.50;;;4.80;99.90;;;;;;5052735;28;20763;-62
2021/04/06 08:45:54;;;;;;;5.53;3.20;;;4.90;99.90;;;;;;5052939;28;20409;-62
2021/04/06 08:48:49;;;;;;;5.37;3.33;;;5.10;99.90;;;;;;5052608;28;20405;-62
2021/04/06 08:51:18;;;;;;;6.47;3.13;;;5.10;99.90;;;;;;5052230;28;20744;-61
2021/04/06 08:53:44;;;;;;;5.90;3.17;;;5.10;99.90;;;;;;5052937;28;20408;-62
2021/04/06 08:56:15;;;;;;;6.53;3.93;;;4.60;99.90;;;;;;5052826;28;20413;-62
2021/04/06 08:58:40;;;;;;;5.90;3.47;;;4.50;99.90;;;;;;5052697;28;20452;-62
2021/04/06 09:01:06;;;;;;;7.07;2.70;;;4.30;99.90;;;;;;5052739;28;20800;-62
2021/04/06 09:03:33;;;;;;;7.83;3.43;;;4.20;99.90;;;;;;5054749;28;20174;-62
2021/04/06 09:06:10;;;;;;;8.87;3.70;;;4.30;99.90;;;;;;5052241;28;20396;-62
2021/04/06 09:08:50;;;;;;;8.90;3.67;;;4.60;99.90;;;;;;5052694;28;20431;-62
2021/04/06 09:11:22;;;;;;;3.10;2.20;;;5.00;99.90;;;;;;5052311;28;20800;-62
2021/04/06 09:13:53;;;;;;;6.13;3.53;;;5.00;99.90;;;;;;5052380;28;20417;-62
2021/04/06 09:16:23;;;;;;;4.90;3.30;;;5.10;99.90;;;;;;5052386;28;20488;-63
2021/04/06 09:19:13;;;;;;;6.97;3.27;;;5.20;99.90;;;;;;5052408;28;20945;-62
2021/04/06 09:21:41;;;;;;;6.10;2.97;;;5.50;99.90;;;;;;5051883;28;20536;-62
2021/04/06 09:24:09;;;;;;;2.80;2.60;;;5.60;99.90;;;;;;5053708;28;20750;-62
2021/04/06 09:26:36;;;;;;;3.53;2.80;;;5.70;99.90;;;;;;5056600;28;20401;-62
2021/04/06 09:29:06;;;;;;;4.60;2.50;;;5.50;99.90;;;;;;5056356;28;20493;-62
2021/04/06 09:31:35;;;;;;;4.73;2.80;;;5.70;99.90;;;;;;5072882;22;20480;-61
2021/04/06 09:34:19;;;;;;;5.67;2.60;;;5.60;99.90;;;;;;5059237;28;20405;-62
2021/04/06 09:36:55;;;;;;;4.60;2.93;;;5.60;99.90;;;;;;5056182;28;20406;-61
2021/04/06 09:39:23;;;;;;;3.00;2.43;;;5.50;99.90;;;;;;5055970;28;20440;-62
2021/04/06 09:41:49;;;;;;;7.10;2.43;;;5.60;99.90;;;;;;5056110;28;20436;-62
2021/04/06 09:44:17;;;;;;;4.03;2.57;;;5.70;99.90;;;;;;5056059;28;20767;-62
2021/04/06 09:46:47;;;;;;;6.30;2.50;;;5.60;99.90;;;;;;5055747;28;20163;-62
2021/04/06 09:49:14;;;;;;;6.60;2.43;;;5.30;99.90;;;;;;5055852;28;20401;-62
2021/04/06 09:51:45;;;;;;;9.13;2.60;;;5.20;99.90;;;;;;5055601;28;20449;-61
2021/04/06 09:54:12;;;;;;;3.10;1.90;;;5.20;99.90;;;;;;5056051;28;20392;-61
2021/04/06 09:56:39;;;;;;;4.20;2.43;;;5.20;99.90;;;;;;5055760;28;20397;-63
2021/04/06 09:59:07;;;;;;;4.63;2.80;;;5.60;99.90;;;;;;5055819;28;20482;-63
2021/04/06 10:01:32;;;;;;;7.20;3.47;;;5.80;99.70;;;;;;5055352;28;20452;-61
2021/04/06 10:04:00;;;;;;;3.87;2.33;;;5.60;98.80;;;;;;5055879;28;20393;-63
2021/04/06 10:06:38;;;;;;;4.10;2.50;;;5.60;99.40;;;;;;5055390;28;20186;-61
2021/04/06 10:09:25;;;;;;;7.60;2.30;;;5.80;99.90;;;;;;5055511;28;20810;-63
2021/04/06 10:11:52;;;;;;;3.80;2.80;;;5.60;99.20;;;;;;5055320;28;20460;-63
2021/04/06 10:14:19;;;;;;;9.77;2.57;;;5.30;99.10;;;;;;5055737;28;20411;-62
2021/04/06 10:16:45;;;;;;;5.37;2.70;;;5.10;99.60;;;;;;5055498;28;20406;-63
2021/04/06 10:19:25;;;;;;;6.23;2.60;;;5.10;99.90;;;;;;5055686;28;20854;-63
2021/04/06 10:22:15;;;;;;;3.73;2.60;;;5.30;99.40;;;;;;5055311;28;20439;-62
2021/04/06 10:24:46;;;;;;;8.47;2.77;;;5.50;99.90;;;;;;5055745;28;20920;-63
2021/04/06 10:27:15;;;;;;;4.73;2.00;;;5.90;99.00;;;;;;5055189;28;20397;-63
2021/04/06 10:29:41;;;;;;;8.40;2.97;;;6.00;99.30;;;;;;5055593;28;20497;-62
2021/04/06 10:32:08;;;;;;;5.70;2.70;;;5.90;98.30;;;;;;5054895;28;20445;-62
2021/04/06 10:34:34;;;;;;;4.70;2.63;;;5.90;98.00;;;;;;5054796;28;20437;-63
2021/04/06 10:37:07;;;;;;;2.87;1.97;;;6.10;97.70;;;;;;5053898;28;20433;-63
2021/04/06 10:39:40;;;;;;;4.10;2.00;;;5.90;96.90;;;;;;5055188;28;20385;-63
2021/04/06 10:42:10;;;;;;;5.50;2.90;;;5.70;96.90;;;;;;5037032;28;20429;-63
2021/04/06 10:44:36;;;;;;;4.83;2.53;;;5.60;98.10;;;;;;5055157;28;20419;-63
2021/04/06 10:47:03;;;;;;;4.40;2.50;;;5.70;96.90;;;;;;5054703;28;20483;-63
2021/04/06 10:49:29;;;;;;;4.00;2.00;;;5.80;97.40;;;;;;5058949;28;20399;-61
2021/04/06 10:51:58;;;;;;;4.87;3.00;;;6.10;96.30;;;;;;5060175;28;20484;-61
2021/04/06 10:54:25;;;;;;;6.63;2.70;;;6.00;96.70;;;;;;5041823;28;20417;-62
2021/04/06 10:56:56;;;;;;;4.60;2.83;;;6.30;97.10;;;;;;5059694;28;20414;-61
2021/04/06 10:59:34;;;;;;;6.50;3.67;;;6.60;96.50;;;;;;5060212;28;20433;-62
2021/04/06 11:02:01;;;;;;;11.60;3.60;;;6.60;95.60;;;;;;5059527;28;20528;-62
2021/04/06 11:04:29;;;;;;;6.23;2.70;;;6.30;96.20;;;;;;5061998;28;20500;-62
2021/04/06 11:07:01;;;;;;;7.20;3.60;;;6.40;96.00;;;;;;5059886;28;20394;-63
2021/04/06 11:09:52;;;;;;;5.47;2.70;;;7.10;95.40;;;;;;5059957;28;20405;-61
2021/04/06 11:12:18;;;;;;;5.67;2.90;;;7.00;94.80;;;;;;5053707;28;20498;-60
2021/04/06 11:14:46;;;;;;;7.20;2.33;;;6.90;95.10;;;;;;5059074;28;20486;-60
2021/04/06 11:17:12;;;;;;;6.60;2.97;;;6.30;95.20;;;;;;5058888;28;20174;-59
2021/04/06 11:19:43;;;;;;;5.97;2.43;;;5.90;95.10;;;;;;5057430;28;20433;-60
2021/04/06 11:22:15;;;;;;;4.47;2.40;;;6.00;96.10;;;;;;5058765;28;20413;-60
2021/04/06 11:24:44;;;;;;;6.10;3.17;;;5.90;95.30;;;;;;5060275;28;20382;-60
2021/04/06 11:27:10;;;;;;;4.23;2.57;;;6.00;96.40;;;;;;5060933;28;20776;-59
2021/04/06 11:29:39;;;;;;;3.47;2.50;;;5.90;94.90;;;;;;5060289;28;20432;-59
2021/04/06 11:32:07;;;;;;;6.20;2.70;;;6.00;94.00;;;;;;5059922;28;20474;-60
2021/04/06 11:34:33;;;;;;;4.50;2.20;;;6.90;93.60;;;;;;5059800;28;20421;-59
2021/04/06 11:37:00;;;;;;;3.57;1.90;;;7.60;92.20;;;;;;5060139;28;20417;-60
2021/04/06 11:39:30;;;;;;;3.13;2.50;;;8.10;90.60;;;;;;5061279;28;20952;-60
2021/04/06 11:41:58;;;;;;;4.63;2.60;;;8.50;86.70;;;;;;5041516;28;20448;-61
2021/04/06 11:44:24;;;;;;;4.17;2.57;;;7.80;90.10;;;;;;5059485;28;20416;-61
2021/04/06 11:46:52;;;;;;;5.43;3.10;;;7.30;90.40;;;;;;5060482;28;20409;-60
2021/04/06 11:49:21;;;;;;;5.77;2.37;;;6.80;92.20;;;;;;5060319;28;20414;-60
2021/04/06 11:51:47;;;;;;;3.37;2.33;;;6.60;92.30;;;;;;5058151;28;20473;-59
2021/04/06 11:54:16;;;;;;;8.30;3.13;;;6.70;92.00;;;;;;5057796;28;20409;-60
2021/04/06 11:56:43;;;;;;;9.40;2.63;;;6.30;91.80;;;;;;5055911;28;20488;-60
2021/04/06 11:59:08;;;;;;;7.53;2.50;;;6.20;93.10;;;;;;5055956;28;20448;-60
2021/04/06 12:01:35;;;;;;;4.57;2.53;;;6.10;93.20;;;;;;5055904;28;20533;-60
2021/04/06 12:04:01;;;;;;;5.63;2.47;;;6.50;93.20;;;;;;5057092;28;20171;-60
2021/04/06 12:06:27;;;;;;;5.37;2.77;;;6.40;90.40;;;;;;5057426;28;20912;-59
2021/04/06 12:08:53;;;;;;;5.93;2.50;;;6.30;91.20;;;;;;5058180;28;20414;-60
2021/04/06 12:11:19;;;;;;;3.57;2.10;;;6.40;92.00;;;;;;5059776;28;20214;-61
2021/04/06 12:13:45;;;;;;;3.00;2.17;;;7.00;90.30;;;;;;5060002;28;20577;-60
2021/04/06 12:16:11;;;;;;;4.27;2.10;;;8.40;89.50;;;;;;5057067;28;20409;-61
2021/04/06 12:18:37;;;;;;;5.13;2.60;;;9.10;86.70;;;;;;5056302;28;20596;-60
2021/04/06 12:21:04;;;;;;;6.40;2.40;;;9.60;82.30;;;;;;5055799;28;20193;-61
2021/04/06 12:23:29;;;;;;;3.80;1.97;;;11.20;80.60;;;;;;5056806;28;20781;-62
2021/04/06 12:25:55;;;;;;;3.50;1.83;;;12.50;75.10;;;;;;5056023;28;20413;-59
2021/04/06 12:28:20;;;;;;;6.00;2.20;;;13.50;67.40;;;;;;5056604;28;20162;-60
2021/04/06 12:30:46;;;;;;;3.87;2.27;;;13.20;60.50;;;;;;5056137;28;20254;-63
2021/04/06 12:33:13;;;;;;;4.10;2.13;;;13.10;60.50;;;;;;5053169;28;20184;-62
2021/04/06 12:35:39;;;;;;;4.57;2.77;;;13.40;62.30;;;;;;5056091;28;20189;-62
2021/04/06 12:38:04;;;;;;;5.47;2.40;;;13.60;59.40;;;;;;5056510;28;20447;-62
2021/04/06 12:40:31;;;;;;;2.93;2.20;;;12.00;59.90;;;;;;5056982;28;20177;-61
2021/04/06 12:42:57;;;;;;;4.03;2.00;;;11.50;63.20;;;;;;5056473;28;20185;-61
2021/04/06 12:45:23;;;;;;;3.27;1.50;;;12.00;64.70;;;;;;5056508;28;20547;-62
2021/04/06 12:47:49;;;;;;;3.33;2.50;;;13.20;57.20;;;;;;5056964;28;20447;-61
2021/04/06 12:50:15;;;;;;;4.70;1.93;;;11.70;58.20;;;;;;5056705;28;20671;-61
2021/04/06 12:52:41;;;;;;;4.00;2.23;;;12.10;60.60;;;;;;5057175;28;20196;-61
2021/04/06 12:55:07;;;;;;;4.67;2.17;;;11.60;61.30;;;;;;5057274;28;20412;-61
2021/04/06 12:57:32;;;;;;;5.77;2.63;;;10.70;61.30;;;;;;5057248;28;20247;-61
2021/04/06 12:59:58;;;;;;;2.80;1.80;;;11.00;63.50;;;;;;5059312;28;20436;-62
2021/04/06 13:02:24;;;;;;;3.90;2.27;;;12.50;57.30;;;;;;5060750;28;20186;-61
2021/04/06 13:04:50;;;;;;;3.30;2.03;;;12.40;58.50;;;;;;5063735;28;20165;-61
2021/04/06 13:07:16;;;;;;;3.50;1.80;;;11.70;55.80;;;;;;5061272;28;20405;-61
2021/04/06 13:09:42;;;;;;;2.60;1.60;;;10.70;58.00;;;;;;5060399;28;20168;-61
2021/04/06 13:12:08;;;;;;;2.40;1.43;;;11.40;58.90;;;;;;5060532;28;20448;-60